Airfield :
LOGIN :

Register | Disclaimer

   EN    FR    IT 

 










Legend :    VFR   Marginal VFR   IFR   Intensive IFR   Very Intensive IFR
Visi :
Ceiling :
>= 8 km
>= 3000ft
5 to 8 km
1000 to 3000 ft
1500m to 5 km
500 to 1000 ft
800 to 1500m
200 to 500 ft
< 800m
< 200 ft
Symbols :   Thunderstorms  Fog  Heavy snow  Heavy precipitations  Wind > 20 kt
SIGMETs :     Misc.  Thunderstorms  Icing  Turbulence  Mountain Waves  Volcanic Ashes







- Airport Elevation : 190 ft
- IATA code : CAX
- Download approach charts


EGNC - Carlisle

CURRENT METAR :
  • 151520Z 32004KT 270V350 9999 FEW019 03/M00 Q1007

EXPIRED METARs :
  • 151450Z VRB02KT 9999 FEW019 03/00 Q1006
  • 151420Z 31005KT 9999 FEW019 04/01 Q1006
  • 151350Z VRB02KT 9999 FEW019 04/01 Q1005
  • 151320Z VRB03KT 9999 FEW019 04/01 Q1005
  • 151250Z 35004KT 300V030 9999 SCT017 04/01 Q1004

TAF TAF EGNC
Valid from the 15 at 15:00 until the 15 at 18:00 UTC


151357Z 1515/1518 29005KT 9999 SCT025
ATIS : +44 1228 574 123
No reported NOTAMs for that airfield.



MET'MAP, your aeronautical weather chart ! - Copyright ORBIFLY December 2007 - Disclaimer

ORBIFLY MET'MAP TEAM :

Programming & Development : Alexandra Zaïnal
Concept & Development : Baudouin d'Aumeries
Co-Development & Prog : Marc-Olivier Méhu
Technical & hardware support : Manuel Goepfert

Contact : metmap@orbifly.com




SOURCES & CREDITS :

   NOAA